Apgar, Montana
Current Conditions -  °F | °C
As of 8:55 AM on Tuesday 21 Oct 2014 (Local Time) from KGPI Reporting Station
Moderate Rain Moderate Rain  
Wind Chill:   Ceiling: 4900
Heat Index:   Visibility: 5mi
Dew Point:   Wind: 7mph
Humidity: 93%   Direction: 140°SE
Pressure: 29.8"   Gusts: NA
Location:  48.5033°N, 113.981°W
Report Text: KGPI 211455Z 14006KT 5SM RA BR SCT032 BKN049 OVC060 07/06 A2980 RMK AO2 SLP098 P0005 60006 T00720061 53012
Loading
Personal Weather Stations






























Interactive Weather Map
Tropical Storm Tracking
New forecast layout! Learn more

10-Day Weather Forecast

Advertisements
Track Severe Weather on mobile